Time;durP1;ratioP1;P1;durP2;ratioP2;P2;SDS_P1;SDS_P2;PMS_P1;PMS_P2;Temp;Humidity;BMP_temperature;BMP_pressure;BME280_temperature;BME280_humidity;BME280_pressure;Samples;Min_cycle;Max_cycle;Signal;HPM_P1;HPM_P2
2022/03/23 00:02:03;;;;;;;59.07;36.10;;;10.40;99.90;;;;;;5049109;28;20387;-78
2022/03/23 00:04:29;;;;;;;58.53;35.20;;;10.40;99.90;;;;;;5048213;28;20053;-77
2022/03/23 00:06:55;;;;;;;56.40;35.40;;;10.30;99.90;;;;;;5049186;28;20405;-78
2022/03/23 00:09:21;;;;;;;60.00;34.97;;;10.30;99.90;;;;;;5032217;28;20052;-78
2022/03/23 00:11:46;;;;;;;56.30;34.25;;;10.30;99.90;;;;;;5032251;28;20045;-79
2022/03/23 00:14:13;;;;;;;58.53;34.35;;;10.20;99.90;;;;;;5048154;28;20075;-78
2022/03/23 00:16:39;;;;;;;57.03;35.47;;;10.20;99.90;;;;;;5032592;28;20048;-78
2022/03/23 00:19:08;;;;;;;57.80;37.03;;;10.10;99.90;;;;;;5032232;28;20041;-78
2022/03/23 00:21:34;;;;;;;58.97;36.50;;;10.10;99.90;;;;;;5048746;28;20051;-78
2022/03/23 00:24:00;;;;;;;60.10;35.80;;;10.10;99.90;;;;;;5048673;28;20480;-77
2022/03/23 00:26:29;;;;;;;59.70;35.87;;;10.10;99.90;;;;;;5048254;28;20049;-77
2022/03/23 00:28:58;;;;;;;60.13;35.50;;;10.00;99.90;;;;;;5048936;28;20094;-78
2022/03/23 00:31:23;;;;;;;60.25;36.17;;;9.90;99.90;;;;;;5031665;28;20472;-78
2022/03/23 00:33:54;;;;;;;61.27;36.00;;;9.80;99.90;;;;;;5048565;28;20124;-78
2022/03/23 00:36:20;;;;;;;57.78;36.28;;;9.80;99.90;;;;;;5048192;28;20778;-78
2022/03/23 00:38:47;;;;;;;57.55;35.20;;;9.80;99.90;;;;;;5048784;28;20053;-78
2022/03/23 00:41:13;;;;;;;59.92;35.22;;;9.80;99.90;;;;;;5047816;28;20410;-78
2022/03/23 00:43:39;;;;;;;64.85;36.38;;;9.80;99.90;;;;;;5051762;28;20492;-78
2022/03/23 00:46:05;;;;;;;59.00;36.42;;;9.80;99.90;;;;;;5052483;28;20488;-78
2022/03/23 00:48:31;;;;;;;57.13;35.08;;;9.70;99.90;;;;;;5035182;28;20507;-78
2022/03/23 00:50:58;;;;;;;57.25;35.60;;;9.80;99.90;;;;;;5052175;28;20439;-78
2022/03/23 00:53:24;;;;;;;58.03;35.40;;;9.70;99.90;;;;;;5051384;28;20037;-78
2022/03/23 00:55:50;;;;;;;59.03;35.28;;;9.70;99.90;;;;;;5035242;28;20044;-78
2022/03/23 00:58:16;;;;;;;54.78;33.97;;;9.70;99.90;;;;;;5051556;28;20044;-78
2022/03/23 01:00:42;;;;;;;59.70;34.92;;;9.70;99.90;;;;;;5035353;28;20084;-78
2022/03/23 01:03:09;;;;;;;60.33;36.70;;;9.70;99.90;;;;;;5051874;28;20044;-78
2022/03/23 01:05:35;;;;;;;53.45;34.95;;;9.70;99.90;;;;;;5035779;28;20488;-78
2022/03/23 01:08:01;;;;;;;59.45;35.47;;;9.70;99.90;;;;;;5051809;28;20136;-78
2022/03/23 01:10:27;;;;;;;60.72;35.58;;;9.70;99.90;;;;;;5051142;28;20448;-78
2022/03/23 01:12:54;;;;;;;62.75;36.15;;;9.60;99.90;;;;;;5053858;28;20154;-78
2022/03/23 01:15:21;;;;;;;56.05;36.13;;;9.50;99.90;;;;;;5054438;28;20049;-78
2022/03/23 01:17:47;;;;;;;64.20;37.03;;;9.50;99.90;;;;;;5054917;28;20106;-78
2022/03/23 01:20:14;;;;;;;59.83;37.13;;;9.40;99.90;;;;;;5054707;28;20387;-78
2022/03/23 01:22:42;;;;;;;60.88;36.75;;;9.40;99.90;;;;;;5054901;28;20076;-78
2022/03/23 01:25:09;;;;;;;61.58;36.42;;;9.30;99.90;;;;;;5038012;28;20171;-78
2022/03/23 01:27:35;;;;;;;;;;;9.30;99.90;;;;;;5054907;28;20105;-78
2022/03/23 01:30:05;;;;;;;57.67;35.45;;;9.30;99.90;;;;;;5054650;28;20020;-78
2022/03/23 01:32:31;;;;;;;60.13;36.97;;;9.20;99.90;;;;;;5054142;28;20120;-78
2022/03/23 01:34:56;;;;;;;62.17;36.83;;;9.10;99.90;;;;;;5054912;28;20544;-78
2022/03/23 01:37:22;;;;;;;64.85;37.58;;;9.10;99.90;;;;;;5054071;28;20124;-78
2022/03/23 01:39:48;;;;;;;60.90;36.97;;;9.00;99.90;;;;;;5054686;28;20059;-78
2022/03/23 01:42:14;;;;;;;59.50;36.20;;;9.00;99.90;;;;;;5054529;28;20052;-78
2022/03/23 01:44:39;;;;;;;61.45;37.72;;;9.00;99.90;;;;;;5054388;28;20351;-78
2022/03/23 01:47:08;;;;;;;56.95;36.92;;;9.20;99.90;;;;;;5054313;28;20075;-78
2022/03/23 01:49:39;;;;;;;66.45;38.72;;;8.90;99.90;;;;;;5054053;28;20488;-79
2022/03/23 01:52:07;;;;;;;68.22;37.05;;;8.80;99.90;;;;;;5054254;28;20047;-79
2022/03/23 01:54:34;;;;;;;60.53;36.20;;;8.80;99.90;;;;;;5053157;28;20487;-78
2022/03/23 01:57:02;;;;;;;61.75;36.72;;;8.70;99.90;;;;;;5054476;28;20395;-78
2022/03/23 01:59:28;;;;;;;65.30;38.08;;;8.70;99.90;;;;;;5053340;28;20051;-78
2022/03/23 02:01:54;;;;;;;60.67;36.58;;;8.70;99.90;;;;;;5054053;28;20040;-78
2022/03/23 02:04:21;;;;;;;58.38;36.38;;;8.70;99.90;;;;;;5036726;28;20517;-78
2022/03/23 02:06:48;;;;;;;58.15;35.85;;;8.70;99.90;;;;;;5053989;28;20126;-78
2022/03/23 02:09:18;;;;;;;60.70;36.65;;;8.70;99.90;;;;;;5054169;28;20044;-78
2022/03/23 02:11:45;;;;;;;60.70;37.20;;;8.60;99.90;;;;;;5037272;28;20036;-78
2022/03/23 02:14:12;;;;;;;59.35;37.05;;;8.60;99.90;;;;;;5053616;28;20059;-78
2022/03/23 02:16:43;;;;;;;59.80;37.55;;;8.60;99.90;;;;;;5053597;28;20062;-78
2022/03/23 02:19:10;;;;;;;61.47;35.33;;;8.50;99.90;;;;;;5053548;28;20040;-78
2022/03/23 02:21:37;;;;;;;61.75;36.08;;;8.50;99.90;;;;;;5053188;28;20048;-78
2022/03/23 02:24:03;;;;;;;;;;;8.50;99.90;;;;;;5054104;28;20094;-77
2022/03/23 02:26:29;;;;;;;62.15;36.95;;;8.40;99.90;;;;;;5053334;28;20322;-78
2022/03/23 02:28:55;;;;;;;56.65;35.72;;;8.30;99.90;;;;;;5053868;28;20557;-78
2022/03/23 02:31:21;;;;;;;59.80;35.53;;;8.30;99.90;;;;;;5053088;28;20049;-78
2022/03/23 02:33:47;;;;;;;55.60;34.55;;;8.30;99.90;;;;;;5053820;28;20047;-77
2022/03/23 02:36:12;;;;;;;57.47;35.65;;;8.30;99.90;;;;;;5053193;28;20049;-78
2022/03/23 02:38:38;;;;;;;60.03;35.70;;;8.20;99.90;;;;;;5053359;28;20106;-77
2022/03/23 02:41:04;;;;;;;61.73;37.17;;;8.20;99.90;;;;;;5053383;28;20055;-79
2022/03/23 02:43:30;;;;;;;63.20;37.53;;;8.20;99.90;;;;;;5036360;28;20075;-78
2022/03/23 02:45:55;;;;;;;58.65;37.22;;;8.20;99.90;;;;;;5071288;28;20039;-78
2022/03/23 02:48:21;;;;;;;64.43;36.40;;;8.10;99.90;;;;;;5052700;28;20391;-78
2022/03/23 02:50:47;;;;;;;56.40;35.17;;;8.10;99.90;;;;;;5036752;28;20395;-78
2022/03/23 03:02:14;;;;;;;57.33;35.72;;;7.90;99.90;;;;;;5053001;28;20108;-77
2022/03/23 03:04:40;;;;;;;56.95;34.97;;;7.90;99.90;;;;;;5036010;28;20040;-77
2022/03/23 03:07:05;;;;;;;56.60;34.17;;;7.90;99.90;;;;;;5053087;28;20056;-78
2022/03/23 03:09:31;;;;;;;53.80;33.10;;;7.80;99.90;;;;;;5052671;28;20344;-78
2022/03/23 03:11:57;;;;;;;51.03;31.57;;;7.80;99.90;;;;;;5052882;28;20040;-78
2022/03/23 03:14:23;;;;;;;49.88;32.08;;;7.80;99.90;;;;;;5048892;28;20122;-78
2022/03/23 03:16:48;;;;;;;46.75;29.70;;;7.80;99.90;;;;;;5049787;28;20040;-78
2022/03/23 03:19:14;;;;;;;45.38;29.17;;;7.60;99.90;;;;;;5049592;28;20056;-79
2022/03/23 03:21:40;;;;;;;44.90;29.10;;;7.90;99.90;;;;;;5048957;28;20055;-79
2022/03/23 03:24:06;;;;;;;44.63;27.65;;;7.70;99.90;;;;;;5049171;28;20045;-78
2022/03/23 03:26:32;;;;;;;41.67;26.63;;;7.70;99.90;;;;;;5032316;28;20033;-78
2022/03/23 03:28:58;;;;;;;41.17;27.20;;;7.60;99.90;;;;;;5032967;28;20041;-78
2022/03/23 03:31:24;;;;;;;42.50;27.77;;;7.60;99.90;;;;;;5048908;28;20294;-78
2022/03/23 03:33:50;;;;;;;37.08;24.27;;;7.60;99.90;;;;;;5033189;28;20041;-78
2022/03/23 03:36:16;;;;;;;30.42;20.55;;;7.60;99.90;;;;;;5049219;28;20119;-78
2022/03/23 03:38:43;;;;;;;31.02;20.50;;;7.60;99.90;;;;;;5049210;28;20130;-78
2022/03/23 03:41:09;;;;;;;32.65;21.20;;;7.50;99.90;;;;;;5049160;28;20041;-78
2022/03/23 03:43:35;;;;;;;31.85;20.45;;;7.50;99.90;;;;;;5048513;28;20135;-78
2022/03/23 03:46:02;;;;;;;30.10;19.65;;;7.50;99.90;;;;;;5032887;28;20539;-78
2022/03/23 03:48:28;;;;;;;32.25;20.60;;;7.50;99.90;;;;;;5048604;28;20068;-78
2022/03/23 03:50:55;;;;;;;31.92;21.35;;;7.40;99.90;;;;;;5049433;28;20526;-78
2022/03/23 03:53:20;;;;;;;37.85;23.00;;;7.40;99.90;;;;;;5049188;28;20107;-78
2022/03/23 03:55:46;;;;;;;45.22;28.58;;;7.40;99.90;;;;;;5048896;28;20048;-78
2022/03/23 03:58:17;;;;;;;52.40;31.15;;;7.40;99.90;;;;;;5048698;28;20056;-78
2022/03/23 04:00:43;;;;;;;53.70;32.08;;;7.40;99.90;;;;;;5049040;28;20427;-79
2022/03/23 04:03:09;;;;;;;52.75;32.22;;;7.30;99.90;;;;;;5016214;28;20048;-78
2022/03/23 04:05:34;;;;;;;58.57;33.97;;;7.30;99.90;;;;;;5048356;28;20048;-78
2022/03/23 04:08:00;;;;;;;56.13;34.42;;;7.30;99.90;;;;;;5049201;28;20670;-77
2022/03/23 04:10:26;;;;;;;56.60;34.90;;;7.20;99.90;;;;;;5031906;28;20040;-78
2022/03/23 04:12:53;;;;;;;57.15;34.28;;;7.20;99.90;;;;;;5050707;28;20045;-77
2022/03/23 04:15:20;;;;;;;65.13;37.53;;;7.20;99.90;;;;;;5035501;28;20052;-78
2022/03/23 04:17:47;;;;;;;63.67;36.53;;;7.20;99.90;;;;;;5037658;28;20384;-78
2022/03/23 04:20:13;;;;;;;60.13;36.22;;;7.10;99.90;;;;;;5055873;28;20439;-78
2022/03/23 04:22:39;;;;;;;61.53;36.17;;;7.10;99.90;;;;;;5055980;28;20044;-77
2022/03/23 04:25:10;;;;;;;60.05;37.22;;;7.20;99.90;;;;;;5055800;28;20159;-78
2022/03/23 04:27:50;;;;;;;63.42;36.63;;;7.20;99.90;;;;;;5055338;28;20044;-77
2022/03/23 04:30:18;;;;;;;62.15;37.03;;;7.10;99.90;;;;;;5055538;28;20131;-78
2022/03/23 04:32:45;;;;;;;59.17;35.40;;;7.10;99.90;;;;;;5055336;28;20040;-78
2022/03/23 04:35:11;;;;;;;58.25;35.75;;;7.00;99.90;;;;;;5056081;28;20033;-78
2022/03/23 04:37:36;;;;;;;63.47;37.63;;;7.10;99.90;;;;;;5073294;28;20036;-78
2022/03/23 04:40:04;;;;;;;68.28;39.75;;;7.00;99.90;;;;;;5055641;28;20044;-78
2022/03/23 04:42:29;;;;;;;68.15;39.70;;;7.00;99.90;;;;;;5038470;28;20050;-78
2022/03/23 04:44:55;;;;;;;65.90;40.17;;;7.00;99.90;;;;;;5038910;28;20040;-78
2022/03/23 04:47:21;;;;;;;71.22;41.33;;;7.00;99.90;;;;;;5055579;28;20625;-78
2022/03/23 04:49:48;;;;;;;67.53;40.93;;;7.00;99.90;;;;;;5055335;28;20051;-78
2022/03/23 04:52:16;;;;;;;71.32;41.90;;;7.00;99.90;;;;;;5055104;28;20048;-77
2022/03/23 04:54:45;;;;;;;70.45;40.95;;;6.90;99.90;;;;;;5055020;28;20492;-77
2022/03/23 04:57:11;;;;;;;70.97;40.42;;;6.90;99.90;;;;;;5055241;28;20123;-78
2022/03/23 04:59:37;;;;;;;68.37;40.93;;;6.90;99.90;;;;;;5054614;28;20127;-78
2022/03/23 05:02:02;;;;;;;69.97;40.57;;;6.90;99.90;;;;;;5055504;28;20398;-78
2022/03/23 05:04:28;;;;;;;70.45;40.10;;;6.90;99.90;;;;;;5054371;28;20307;-78
2022/03/23 05:06:54;;;;;;;71.23;41.87;;;6.90;99.90;;;;;;5054870;28;20040;-78
2022/03/23 05:09:19;;;;;;;70.27;41.20;;;6.90;99.90;;;;;;5055212;28;20048;-78
2022/03/23 05:11:45;;;;;;;70.43;40.20;;;7.00;99.90;;;;;;5054986;28;20381;-79
2022/03/23 05:14:11;;;;;;;67.93;39.85;;;6.80;99.90;;;;;;5055178;28;20477;-78
2022/03/23 05:16:37;;;;;;;69.00;41.33;;;7.00;99.90;;;;;;5054844;28;20056;-78
2022/03/23 05:19:03;;;;;;;71.97;42.85;;;6.80;99.90;;;;;;5055189;28;20148;-78
2022/03/23 05:21:29;;;;;;;74.07;41.08;;;6.80;99.90;;;;;;5054513;28;20049;-78
2022/03/23 05:23:55;;;;;;;73.57;43.90;;;6.80;99.90;;;;;;5038404;28;20067;-78
2022/03/23 05:26:21;;;;;;;71.37;40.33;;;7.00;99.90;;;;;;5054945;28;20036;-78
2022/03/23 05:28:47;;;;;;;71.28;40.15;;;6.70;99.90;;;;;;5053217;28;20286;-78
2022/03/23 05:31:13;;;;;;;70.10;41.70;;;6.80;99.90;;;;;;5055043;28;20089;-78
2022/03/23 05:33:39;;;;;;;69.57;41.28;;;6.70;99.90;;;;;;5054400;28;20131;-78
2022/03/23 05:36:05;;;;;;;74.85;41.80;;;6.80;99.90;;;;;;5054587;28;20040;-78
2022/03/23 05:38:30;;;;;;;70.40;40.83;;;6.70;99.90;;;;;;5054246;28;20044;-78
2022/03/23 05:40:56;;;;;;;71.20;40.57;;;6.70;99.90;;;;;;5055113;28;20048;-78
2022/03/23 05:43:22;;;;;;;65.80;38.43;;;6.70;99.90;;;;;;5054301;28;20071;-78
2022/03/23 05:45:47;;;;;;;62.40;38.93;;;6.70;99.90;;;;;;5054324;28;20048;-78
2022/03/23 05:48:13;;;;;;;64.00;37.57;;;6.70;99.90;;;;;;5038292;28;20306;-78
2022/03/23 05:50:39;;;;;;;64.80;39.43;;;6.70;99.90;;;;;;5054916;28;20044;-79
2022/03/23 05:53:07;;;;;;;66.20;38.90;;;6.70;99.90;;;;;;5054858;28;20275;-78
2022/03/23 05:55:32;;;;;;;64.60;39.33;;;6.70;99.90;;;;;;5037425;28;20123;-78
2022/03/23 05:57:59;;;;;;;68.53;39.30;;;6.70;99.90;;;;;;5054119;28;20469;-78
2022/03/23 06:00:24;;;;;;;61.80;37.25;;;6.70;99.90;;;;;;5054349;28;20123;-78
2022/03/23 06:02:50;;;;;;;69.70;40.95;;;6.70;99.90;;;;;;5053748;28;20132;-78
2022/03/23 06:05:19;;;;;;;64.57;37.92;;;6.80;99.90;;;;;;5053870;28;20052;-78
2022/03/23 06:07:44;;;;;;;62.63;38.40;;;6.80;99.90;;;;;;5053476;28;20036;-78
2022/03/23 06:10:13;;;;;;;62.30;37.53;;;6.90;99.90;;;;;;5037390;28;20094;-78
2022/03/23 06:12:39;;;;;;;61.22;37.78;;;6.90;99.90;;;;;;5053086;28;20048;-77
2022/03/23 06:15:08;;;;;;;64.97;39.53;;;6.90;99.90;;;;;;5053760;28;20110;-77
2022/03/23 06:17:35;;;;;;;62.92;37.63;;;6.90;99.90;;;;;;5053176;28;20155;-77
2022/03/23 06:20:02;;;;;;;;;;;7.00;99.90;;;;;;5054190;28;20052;-77
2022/03/23 06:22:27;;;;;;;61.75;38.05;;;7.10;99.90;;;;;;5053662;28;19917;-78
2022/03/23 06:24:53;;;;;;;62.05;37.83;;;7.10;99.90;;;;;;5053022;28;20045;-76
2022/03/23 06:27:19;;;;;;;63.60;37.95;;;7.10;99.90;;;;;;5053217;28;20182;-78
2022/03/23 06:29:45;;;;;;;59.28;35.47;;;7.20;99.90;;;;;;5053666;28;20041;-78
2022/03/23 06:32:11;;;;;;;57.38;35.88;;;7.30;99.90;;;;;;5053675;28;20059;-78
2022/03/23 06:34:36;;;;;;;62.13;36.00;;;7.40;99.90;;;;;;5052969;28;20123;-78
2022/03/23 06:37:02;;;;;;;69.80;37.20;;;7.50;99.90;;;;;;5053456;28;20062;-78
2022/03/23 06:39:32;;;;;;;58.83;35.60;;;7.70;99.90;;;;;;5052993;28;20290;-78
2022/03/23 06:41:58;;;;;;;59.03;35.40;;;7.80;99.90;;;;;;5071385;28;20033;-79
2022/03/23 06:44:24;;;;;;;55.40;34.58;;;7.90;99.90;;;;;;5036447;28;20114;-78
2022/03/23 06:46:50;;;;;;;55.92;34.08;;;8.00;99.90;;;;;;5052636;28;20040;-78
2022/03/23 06:49:16;;;;;;;56.20;33.45;;;8.20;99.90;;;;;;5036388;28;20048;-78
2022/03/23 06:51:42;;;;;;;57.10;34.13;;;8.30;99.90;;;;;;5052985;28;20360;-78
2022/03/23 06:54:08;;;;;;;;;;;8.50;99.90;;;;;;5036803;28;20047;-78
2022/03/23 06:56:34;;;;;;;64.95;37.47;;;8.60;99.90;;;;;;5052557;28;19920;-78
2022/03/23 06:59:00;;;;;;;65.32;39.83;;;8.70;99.90;;;;;;5053161;28;20041;-78
2022/03/23 07:01:25;;;;;;;72.65;40.60;;;8.90;99.90;;;;;;5036363;28;20488;-78
2022/03/23 07:03:51;;;;;;;67.50;40.00;;;9.00;99.90;;;;;;5052544;28;20506;-79
2022/03/23 07:06:17;;;;;;;68.35;39.78;;;9.20;99.90;;;;;;5052905;28;20115;-78
2022/03/23 07:11:28;;;;;;;64.88;39.53;;;9.50;99.90;;;;;;5052646;28;20083;-79
2022/03/23 07:13:54;;;;;;;65.18;39.13;;;9.60;99.90;;;;;;5052327;28;20548;-78
2022/03/23 07:16:19;;;;;;;62.42;38.65;;;9.80;99.90;;;;;;5052505;28;20051;-78
2022/03/23 07:18:45;;;;;;;65.10;37.55;;;9.90;99.90;;;;;;5052759;28;20079;-78
2022/03/23 07:21:11;;;;;;;57.27;35.43;;;10.00;99.90;;;;;;5053018;28;20055;-78
2022/03/23 07:23:37;;;;;;;58.33;35.53;;;10.10;99.90;;;;;;5052482;28;20047;-78
2022/03/23 07:26:04;;;;;;;60.38;35.50;;;10.20;99.90;;;;;;5052913;28;20041;-79
2022/03/23 07:28:30;;;;;;;55.38;34.33;;;10.40;99.90;;;;;;5036245;28;20102;-78
2022/03/23 07:30:56;;;;;;;60.55;35.38;;;10.80;99.90;;;;;;5019599;28;20091;-78
2022/03/23 07:33:22;;;;;;;53.58;33.53;;;11.30;99.90;;;;;;5052713;28;20047;-78
2022/03/23 07:35:48;;;;;;;51.75;33.13;;;11.80;99.90;;;;;;5070368;28;20098;-78
2022/03/23 07:38:14;;;;;;;51.07;32.07;;;12.30;99.90;;;;;;5036034;28;20040;-78
2022/03/23 07:40:41;;;;;;;50.20;31.63;;;12.70;99.90;;;;;;5052395;28;20283;-78
2022/03/23 07:43:06;;;;;;;;;;;13.10;99.90;;;;;;5053363;28;20059;-79
2022/03/23 07:45:32;;;;;;;47.55;30.58;;;13.50;99.90;;;;;;5052497;28;19920;-78
2022/03/23 07:47:58;;;;;;;44.58;30.45;;;13.60;99.90;;;;;;5035704;28;20048;-79
2022/03/23 07:50:24;;;;;;;50.70;30.25;;;14.20;99.90;;;;;;5052280;28;20063;-77
2022/03/23 07:52:49;;;;;;;44.83;29.58;;;14.10;99.90;;;;;;5054247;28;20391;-78
2022/03/23 07:55:15;;;;;;;46.33;29.45;;;14.30;99.90;;;;;;5056822;28;20437;-78
2022/03/23 07:57:42;;;;;;;44.53;29.30;;;14.40;99.90;;;;;;5055930;28;20097;-78
2022/03/23 08:00:08;;;;;;;42.17;29.10;;;14.90;99.90;;;;;;5056430;28;20049;-78
2022/03/23 08:02:34;;;;;;;45.72;28.65;;;15.30;99.90;;;;;;5056467;28;20079;-78
2022/03/23 08:04:59;;;;;;;43.80;27.35;;;15.50;99.90;;;;;;5056057;28;20083;-78
2022/03/23 08:07:25;;;;;;;39.47;26.50;;;15.90;99.90;;;;;;5056254;28;20132;-78
2022/03/23 08:09:51;;;;;;;36.25;24.83;;;16.10;99.90;;;;;;5055950;28;20041;-78
2022/03/23 08:12:17;;;;;;;38.13;26.65;;;16.50;99.90;;;;;;5056396;28;20468;-78
2022/03/23 08:14:44;;;;;;;39.08;25.80;;;16.30;99.90;;;;;;5055612;28;20135;-78
2022/03/23 08:17:10;;;;;;;36.15;25.80;;;16.50;99.90;;;;;;5056128;28;20040;-78
2022/03/23 08:19:37;;;;;;;38.83;25.02;;;16.40;99.90;;;;;;5039366;28;20083;-78
2022/03/23 08:22:02;;;;;;;35.33;24.17;;;16.70;99.70;;;;;;5055579;28;20044;-78
2022/03/23 08:24:28;;;;;;;37.00;24.35;;;16.30;98.30;;;;;;5055826;28;20048;-79
2022/03/23 08:26:54;;;;;;;36.13;23.65;;;16.70;98.90;;;;;;5055576;28;20041;-79
2022/03/23 08:29:20;;;;;;;33.00;24.27;;;17.20;99.00;;;;;;5055696;28;20403;-79
2022/03/23 08:31:46;;;;;;;;;;;17.60;97.40;;;;;;5039690;28;20546;-78
2022/03/23 08:34:12;;;;;;;39.90;23.77;;;18.00;95.10;;;;;;5055906;28;19955;-78
2022/03/23 08:36:38;;;;;;;31.40;23.25;;;17.80;95.00;;;;;;5056014;28;20048;-79
2022/03/23 08:39:04;;;;;;;;;;;18.10;93.30;;;;;;5055946;28;20048;-79
2022/03/23 08:41:30;;;;;;;34.75;23.13;;;17.90;91.90;;;;;;5055564;28;19920;-79
2022/03/23 08:43:56;;;;;;;33.75;22.25;;;18.60;92.20;;;;;;5038777;28;20048;-79
2022/03/23 08:46:22;;;;;;;29.60;22.05;;;18.70;92.70;;;;;;5055482;28;20050;-78
2022/03/23 08:48:49;;;;;;;30.05;22.45;;;18.40;88.70;;;;;;5072882;28;20044;-78
2022/03/23 08:51:15;;;;;;;29.85;21.98;;;18.20;87.70;;;;;;5038932;28;20043;-78
2022/03/23 08:53:42;;;;;;;28.08;21.23;;;18.20;86.80;;;;;;5054819;28;20040;-79
2022/03/23 08:56:10;;;;;;;28.15;20.17;;;18.50;89.20;;;;;;5055608;28;20041;-78
2022/03/23 08:58:37;;;;;;;27.00;19.88;;;18.90;87.40;;;;;;5055048;28;20049;-78
2022/03/23 09:01:04;;;;;;;27.00;20.40;;;18.80;79.30;;;;;;5055296;28;20041;-78
2022/03/23 09:03:29;;;;;;;27.35;20.13;;;19.20;81.10;;;;;;5054687;28;20048;-77
2022/03/23 09:05:55;;;;;;;27.15;20.42;;;19.00;83.10;;;;;;5054908;28;20055;-78
2022/03/23 09:08:21;;;;;;;29.08;21.08;;;19.40;82.50;;;;;;5054995;28;20119;-78
2022/03/23 09:10:46;;;;;;;23.67;18.83;;;19.80;78.40;;;;;;5054694;28;20119;-78
2022/03/23 09:13:12;;;;;;;27.90;19.38;;;19.90;76.90;;;;;;5055287;28;20051;-77
2022/03/23 09:15:38;;;;;;;24.50;18.55;;;20.40;77.10;;;;;;5055201;28;20083;-78
2022/03/23 09:18:04;;;;;;;26.73;19.67;;;20.30;71.60;;;;;;5038072;28;20399;-78
2022/03/23 09:20:30;;;;;;;28.15;18.92;;;20.60;72.60;;;;;;5054791;28;20048;-77
2022/03/23 09:22:57;;;;;;;26.15;18.63;;;20.90;71.60;;;;;;5054990;28;20446;-78
2022/03/23 09:25:24;;;;;;;25.95;19.60;;;21.00;71.30;;;;;;5054802;28;20103;-77
2022/03/23 09:27:51;;;;;;;23.92;18.80;;;21.10;69.40;;;;;;5054764;28;20045;-77
2022/03/23 09:30:17;;;;;;;22.85;17.95;;;21.30;69.20;;;;;;5054924;28;20045;-78
2022/03/23 09:32:46;;;;;;;22.45;17.75;;;21.60;68.00;;;;;;5054725;28;20389;-78
2022/03/23 09:35:13;;;;;;;23.35;17.95;;;22.40;67.50;;;;;;5054883;28;20055;-78
2022/03/23 09:37:48;;;;;;;23.08;17.85;;;22.00;65.60;;;;;;5054626;28;20098;-78
2022/03/23 09:40:27;;;;;;;20.95;16.90;;;22.50;64.00;;;;;;5054533;28;20048;-78
2022/03/23 09:42:55;;;;;;;21.15;16.73;;;22.10;63.50;;;;;;5054025;28;20128;-78
2022/03/23 09:45:44;;;;;;;21.88;16.60;;;22.60;63.60;;;;;;5054046;28;20044;-78
2022/03/23 09:48:11;;;;;;;20.80;16.98;;;22.70;63.70;;;;;;5054550;28;20044;-77
2022/03/23 09:50:45;;;;;;;21.20;16.50;;;22.80;61.90;;;;;;5054303;28;20044;-77
2022/03/23 09:53:11;;;;;;;22.02;16.70;;;23.00;61.10;;;;;;5054628;28;20037;-77
2022/03/23 09:55:36;;;;;;;;;;;23.00;60.80;;;;;;5054723;28;20040;-78
2022/03/23 09:58:06;;;;;;;21.25;17.42;;;23.00;61.70;;;;;;5037541;28;19923;-77
2022/03/23 10:00:37;;;;;;;21.88;17.55;;;22.70;61.60;;;;;;5053923;28;20048;-78
2022/03/23 10:03:51;;;;;;;23.13;18.20;;;22.30;60.80;;;;;;5053685;28;20048;-77
2022/03/23 10:06:28;;;;;;;22.75;16.92;;;22.70;60.80;;;;;;5024428;28;20084;-78
2022/03/23 10:09:24;;;;;;;21.35;17.58;;;23.30;61.90;;;;;;5037398;28;20529;-78
2022/03/23 10:12:27;;;;;;;22.15;17.13;;;23.20;60.90;;;;;;5053650;28;20040;-78
2022/03/23 10:15:30;;;;;;;21.88;16.95;;;22.80;59.40;;;;;;5052704;28;20071;-78
2022/03/23 10:18:20;;;;;;;22.27;17.52;;;23.00;59.40;;;;;;5037058;28;20052;-78
2022/03/23 10:20:46;;;;;;;20.85;17.33;;;23.30;59.50;;;;;;5054532;28;20452;-77
2022/03/23 10:23:11;;;;;;;;;;;24.00;59.40;;;;;;5038186;28;20080;-78
2022/03/23 10:25:40;;;;;;;21.38;16.77;;;24.20;59.40;;;;;;5053538;28;19920;-78
2022/03/23 10:28:17;;;;;;;22.08;17.40;;;24.20;59.50;;;;;;5037424;28;20048;-78
2022/03/23 10:30:44;;;;;;;21.02;16.77;;;24.60;57.80;;;;;;5053315;28;20115;-78
2022/03/23 10:33:23;;;;;;;19.48;16.48;;;24.60;58.10;;;;;;5053467;28;20044;-78
2022/03/23 10:35:50;;;;;;;20.05;15.32;;;25.30;57.90;;;;;;5053264;28;20044;-78
2022/03/23 10:38:21;;;;;;;19.85;16.45;;;25.50;57.00;;;;;;5037187;28;20082;-79
2022/03/23 10:40:49;;;;;;;20.27;14.95;;;25.10;57.20;;;;;;5053481;28;20166;-79
2022/03/23 10:43:19;;;;;;;19.63;15.77;;;24.60;56.50;;;;;;5053519;28;20201;-77
2022/03/23 10:45:44;;;;;;;20.73;15.65;;;25.00;55.30;;;;;;5053272;28;20162;-77
2022/03/23 10:48:16;;;;;;;23.77;14.77;;;25.30;55.50;;;;;;5053141;28;20127;-77
2022/03/23 10:50:53;;;;;;;20.92;14.73;;;25.40;54.70;;;;;;5053348;28;20048;-77
2022/03/23 10:53:34;;;;;;;24.55;15.68;;;25.00;53.30;;;;;;5053168;28;20051;-77
2022/03/23 10:56:02;;;;;;;19.70;15.40;;;24.70;54.00;;;;;;5052764;28;20126;-77
2022/03/23 10:58:28;;;;;;;17.42;14.45;;;25.00;54.40;;;;;;5052945;28;20110;-77
2022/03/23 11:01:00;;;;;;;21.45;14.88;;;25.50;53.40;;;;;;5070596;28;20045;-77
2022/03/23 11:03:39;;;;;;;16.88;13.68;;;26.00;53.70;;;;;;5052887;28;20059;-77
2022/03/23 11:06:16;;;;;;;17.63;13.52;;;26.80;51.60;;;;;;5052739;28;20105;-77
2022/03/23 11:08:45;;;;;;;17.30;11.25;;;26.60;52.40;;;;;;5052839;28;20113;-77
2022/03/23 11:16:46;;;;;;;17.85;12.25;;;27.40;51.70;;;;;;5052583;28;20062;-76
2022/03/23 11:19:12;;;;;;;15.63;11.65;;;26.60;51.40;;;;;;5035735;28;20045;-78
2022/03/23 11:22:09;;;;;;;15.75;12.77;;;27.30;52.10;;;;;;5036095;28;20165;-77
2022/03/23 11:24:40;;;;;;;19.85;11.75;;;28.10;50.00;;;;;;5052804;28;20082;-78
2022/03/23 11:27:08;;;;;;;22.02;12.07;;;27.80;50.20;;;;;;5052249;28;20098;-77
2022/03/23 11:29:35;;;;;;;17.58;11.23;;;27.80;50.50;;;;;;5052635;28;20098;-77
2022/03/23 11:32:04;;;;;;;15.45;11.80;;;27.70;50.40;;;;;;5052520;28;20052;-77
2022/03/23 11:34:33;;;;;;;16.60;11.43;;;27.50;48.90;;;;;;5019549;28;20044;-76
2022/03/23 11:37:01;;;;;;;17.73;11.18;;;27.60;49.90;;;;;;5052289;28;20044;-76
2022/03/23 11:39:27;;;;;;;16.23;12.07;;;27.90;50.00;;;;;;5052693;28;20048;-77
2022/03/23 11:41:53;;;;;;;17.50;11.73;;;28.10;49.40;;;;;;5052624;28;20059;-77
2022/03/23 11:44:22;;;;;;;15.25;11.63;;;27.80;50.20;;;;;;5052852;28;20044;-76
2022/03/23 11:46:50;;;;;;;16.75;11.63;;;28.20;49.60;;;;;;5070743;28;20033;-78
2022/03/23 11:49:16;;;;;;;17.33;10.45;;;28.10;50.30;;;;;;5052047;28;20051;-77
2022/03/23 11:52:10;;;;;;;14.35;10.43;;;27.90;48.70;;;;;;5052401;28;20483;-77
2022/03/23 11:57:56;;;;;;;20.52;10.05;;;27.30;48.40;;;;;;5052201;28;20055;-77
2022/03/23 12:00:27;;;;;;;15.05;10.10;;;28.00;49.00;;;;;;5052285;28;20123;-77
2022/03/23 12:02:56;;;;;;;16.42;9.15;;;28.50;47.90;;;;;;5052520;28;20053;-77
2022/03/23 12:05:26;;;;;;;18.75;8.90;;;28.30;47.70;;;;;;5052465;28;20080;-77
2022/03/23 12:07:53;;;;;;;16.83;9.57;;;28.40;48.10;;;;;;5052378;28;20126;-77
2022/03/23 12:10:21;;;;;;;23.13;8.95;;;28.40;48.70;;;;;;5036047;28;20059;-76
2022/03/23 12:12:46;;;;;;;17.23;8.43;;;28.30;49.30;;;;;;5052215;28;20136;-77
2022/03/23 12:15:26;;;;;;;16.20;8.50;;;27.50;48.80;;;;;;5051594;28;20535;-76
2022/03/23 12:18:03;;;;;;;13.85;8.43;;;27.20;48.70;;;;;;5052354;28;20131;-77
2022/03/23 12:20:33;;;;;;;16.40;7.95;;;26.90;48.70;;;;;;5052024;28;20058;-78
2022/03/23 12:23:16;;;;;;;20.92;9.13;;;26.90;48.50;;;;;;5052236;28;20052;-77
2022/03/23 12:26:21;;;;;;;20.13;10.05;;;27.00;49.50;;;;;;5051954;28;20059;-77
2022/03/23 12:29:13;;;;;;;18.95;11.00;;;27.20;49.10;;;;;;5052423;28;20083;-76
2022/03/23 12:31:40;;;;;;;16.90;11.60;;;27.40;49.60;;;;;;5039427;28;20056;-76
2022/03/23 12:34:26;;;;;;;18.13;8.75;;;27.50;49.60;;;;;;5051727;28;20045;-76
2022/03/23 12:36:56;;;;;;;16.13;7.90;;;28.10;48.10;;;;;;5051993;28;20094;-76
2022/03/23 12:39:38;;;;;;;12.82;7.40;;;27.60;48.50;;;;;;5054603;28;20040;-77
2022/03/23 12:42:15;;;;;;;14.68;7.00;;;27.80;49.00;;;;;;5055376;28;20102;-76
2022/03/23 12:44:42;;;;;;;17.88;7.00;;;27.00;48.20;;;;;;5055307;28;20045;-77
2022/03/23 12:47:12;;;;;;;16.10;7.32;;;26.00;49.50;;;;;;5055470;28;20045;-77
2022/03/23 12:58:25;;;;;;;15.88;9.10;;;26.70;50.50;;;;;;5055211;28;20040;-76
2022/03/23 13:00:54;;;;;;;17.50;8.85;;;26.30;50.60;;;;;;5055461;28;20048;-76
2022/03/23 13:03:20;;;;;;;15.50;8.88;;;26.40;50.70;;;;;;5038535;28;20044;-77
2022/03/23 13:05:58;;;;;;;18.38;8.90;;;26.20;50.80;;;;;;5054819;28;20080;-77
2022/03/23 13:08:30;;;;;;;17.63;9.18;;;26.10;50.60;;;;;;5055249;28;20109;-76
2022/03/23 13:11:22;;;;;;;17.83;9.18;;;26.30;50.20;;;;;;5055248;28;20504;-76